OEDF/DMM METAR and TAF weather

Enter ICAO airport designator
Station Type Date Time Source
OEDF METAR 2019/12/07 05:09 UTC NOAA

OEDF 070509Z 16006KT 7000 NSC 18/14 Q1017 NOSIG


Station Type Date Time Source
OEDF Decoded METAR 2019/12/07 05:09 UTC NOAA

Dammam-King Fahd International Airport, Saudi Arabia (OEDF) 26-28N 049-47E
Dec 07, 2019 - 12:09 AM EST / 2019.12.07 0509 UTC
Wind: from the SSE (160 degrees) at 7 MPH (6 KT):0
Visibility: 4 mile(s):0
Temperature: 64 F (18 C)
Dew Point: 57 F (14 C)
Relative Humidity: 77%
Pressure (altimeter): 30.03 in. Hg (1017 hPa)
ob: OEDF 070509Z 16006KT 7000 NSC 18/14 Q1017 NOSIG
cycle: 5

Station Type Date Time Source
OEDF TAF 2019/12/07 06:06 UTC NOAA

TAF TAF OEDF 070250Z 0706/0812 17013KT 8000 NSC
BECMG 0719/0721 VRB04KT 4000 BR PROB30
TEMPO 0723/0805 2000 FEW010
BECMG 0802/0804 SCT040 BKN080

Example: see airport list